createdAt,value
2023-04-29T00:01:09.958Z,3.02
2023-04-29T00:03:36.877Z,3.06
2023-04-29T00:06:03.911Z,3.01
2023-04-29T00:08:30.705Z,3.18
2023-04-29T00:10:57.351Z,3.23
2023-04-29T00:13:24.038Z,3.32
2023-04-29T00:15:50.750Z,3.09
2023-04-29T00:18:17.506Z,3.11
2023-04-29T00:20:44.265Z,3.18
2023-04-29T00:23:11.039Z,3.11
2023-04-29T00:25:37.726Z,3.16
2023-04-29T00:28:05.620Z,3.02
2023-04-29T00:30:32.356Z,3.13
2023-04-29T00:32:59.101Z,3.21
2023-04-29T00:35:25.895Z,2.97
2023-04-29T00:37:52.580Z,2.95
2023-04-29T00:40:19.282Z,2.78
2023-04-29T00:42:46.119Z,2.98
2023-04-29T00:45:12.888Z,3.02
2023-04-29T00:47:39.754Z,2.89
2023-04-29T00:50:07.318Z,3.18
2023-04-29T00:52:34.044Z,3.02
2023-04-29T00:55:00.816Z,3.06
2023-04-29T00:57:27.463Z,2.94
2023-04-29T00:59:54.457Z,3.13
2023-04-29T01:02:21.336Z,2.76
2023-04-29T01:04:48.111Z,2.79
2023-04-29T01:07:18.788Z,3.11
2023-04-29T01:10:04.464Z,3.02
2023-04-29T01:13:07.054Z,2.87
2023-04-29T01:15:42.236Z,2.87
2023-04-29T01:18:29.623Z,3.01
2023-04-29T01:20:57.240Z,2.94
2023-04-29T01:23:30.142Z,2.65
2023-04-29T01:25:57.321Z,3.17
2023-04-29T01:28:44.200Z,2.69
2023-04-29T01:31:31.727Z,2.95
2023-04-29T01:34:19.749Z,3.01
2023-04-29T01:37:07.080Z,2.94
2023-04-29T01:39:40.050Z,3.02
2023-04-29T01:42:15.049Z,2.87
2023-04-29T01:44:41.862Z,2.71
2023-04-29T01:47:08.549Z,2.56
2023-04-29T01:49:38.405Z,2.81
2023-04-29T01:52:05.629Z,2.93
2023-04-29T01:54:32.516Z,2.82
2023-04-29T01:56:59.228Z,2.73
2023-04-29T01:59:25.960Z,2.99
2023-04-29T02:01:52.748Z,2.84
2023-04-29T02:04:19.569Z,3.00
2023-04-29T02:06:46.341Z,2.72
2023-04-29T02:09:13.079Z,2.77
2023-04-29T02:11:39.824Z,2.86
2023-04-29T02:14:06.485Z,2.66
2023-04-29T02:16:33.252Z,2.77
2023-04-29T02:19:00.037Z,2.93
2023-04-29T02:21:26.850Z,2.82
2023-04-29T02:23:53.651Z,2.66
2023-04-29T02:26:20.382Z,2.66
2023-04-29T02:28:47.204Z,2.82
2023-04-29T02:31:13.980Z,2.87
2023-04-29T02:33:40.717Z,2.55
2023-04-29T02:36:07.483Z,2.73
2023-04-29T02:38:34.244Z,2.89
2023-04-29T02:41:00.926Z,2.80
2023-04-29T02:43:27.718Z,2.76
2023-04-29T02:45:54.562Z,2.80
2023-04-29T02:48:21.344Z,2.73
2023-04-29T02:50:48.213Z,3.07
2023-04-29T02:53:14.947Z,2.79
2023-04-29T02:55:41.655Z,2.75
2023-04-29T02:58:08.419Z,2.63
2023-04-29T03:00:35.197Z,2.73
2023-04-29T03:03:02.165Z,2.80
2023-04-29T03:05:29.089Z,2.77
2023-04-29T03:07:55.933Z,2.76
2023-04-29T03:10:22.681Z,2.56
2023-04-29T03:12:49.435Z,2.90
2023-04-29T03:15:16.220Z,2.32
2023-04-29T03:17:43.001Z,2.69
2023-04-29T03:20:09.965Z,2.65
2023-04-29T03:22:36.719Z,2.74
2023-04-29T03:25:03.818Z,2.55
2023-04-29T03:27:30.597Z,2.68
2023-04-29T03:29:57.335Z,2.53
2023-04-29T03:32:24.080Z,2.62
2023-04-29T03:34:50.897Z,2.71
2023-04-29T03:37:17.687Z,2.62
2023-04-29T03:39:44.428Z,2.71
2023-04-29T03:42:11.265Z,2.65
2023-04-29T03:44:37.988Z,2.76
2023-04-29T03:47:04.689Z,2.71
2023-04-29T03:49:31.416Z,2.55
2023-04-29T03:51:58.150Z,2.50
2023-04-29T03:54:24.919Z,2.63
2023-04-29T03:56:51.658Z,2.53
2023-04-29T03:59:18.439Z,2.48
2023-04-29T04:01:45.218Z,2.84
2023-04-29T04:04:12.128Z,2.44
2023-04-29T04:06:38.932Z,2.66
2023-04-29T04:09:05.732Z,2.61
2023-04-29T04:11:32.490Z,2.32
2023-04-29T04:13:59.280Z,2.52
2023-04-29T04:16:26.020Z,2.56
2023-04-29T04:18:55.841Z,2.64
2023-04-29T04:21:22.602Z,2.49
2023-04-29T04:23:49.295Z,2.47
2023-04-29T04:26:16.014Z,2.69
2023-04-29T04:28:42.768Z,2.52
2023-04-29T04:31:09.552Z,2.50
2023-04-29T04:33:36.278Z,2.69
2023-04-29T04:36:02.968Z,2.50
2023-04-29T04:38:29.711Z,2.50
2023-04-29T04:40:56.435Z,2.60
2023-04-29T04:43:23.230Z,2.42
2023-04-29T04:45:49.987Z,2.46
2023-04-29T04:48:16.696Z,2.73
2023-04-29T04:50:43.477Z,2.64
2023-04-29T04:53:10.273Z,2.55
2023-04-29T04:55:37.026Z,2.42
2023-04-29T04:58:03.818Z,2.50
2023-04-29T05:00:30.781Z,2.85
2023-04-29T05:02:57.605Z,2.55
2023-04-29T05:05:24.506Z,2.43
2023-04-29T05:07:51.268Z,2.52
2023-04-29T05:10:17.964Z,2.59
2023-04-29T05:12:44.698Z,2.64
2023-04-29T05:15:11.584Z,2.54
2023-04-29T05:17:38.359Z,2.56
2023-04-29T05:20:05.802Z,2.59
2023-04-29T05:22:32.569Z,2.64
2023-04-29T05:24:59.335Z,2.48
2023-04-29T05:27:26.107Z,2.45
2023-04-29T05:29:53.217Z,2.45
2023-04-29T05:32:20.125Z,2.44
2023-04-29T05:34:46.918Z,2.17
2023-04-29T05:37:13.643Z,2.50
2023-04-29T05:39:40.369Z,2.46
2023-04-29T05:42:07.082Z,2.38
2023-04-29T05:44:33.786Z,2.46
2023-04-29T05:47:00.558Z,2.39
2023-04-29T05:49:27.323Z,2.33
2023-04-29T05:51:54.157Z,2.23
2023-04-29T05:54:20.873Z,2.34
2023-04-29T05:56:50.469Z,2.76
2023-04-29T05:59:17.239Z,2.52
2023-04-29T06:01:43.884Z,2.45
2023-04-29T06:04:10.784Z,2.41
2023-04-29T06:06:40.662Z,2.24
2023-04-29T06:09:13.440Z,2.13
2023-04-29T06:11:47.629Z,2.30
2023-04-29T06:14:14.399Z,2.37
2023-04-29T06:16:41.194Z,2.21
2023-04-29T06:19:08.026Z,2.30
2023-04-29T06:21:34.768Z,2.33
2023-04-29T06:24:01.608Z,2.23
2023-04-29T06:26:28.302Z,2.17
2023-04-29T06:28:55.353Z,2.28
2023-04-29T06:31:23.244Z,2.16
2023-04-29T06:33:50.160Z,2.14
2023-04-29T06:36:16.896Z,2.36
2023-04-29T06:38:43.679Z,2.41
2023-04-29T06:41:10.484Z,2.24
2023-04-29T06:43:37.296Z,2.22
2023-04-29T06:46:04.200Z,2.61
2023-04-29T06:48:30.886Z,2.13
2023-04-29T06:50:57.929Z,2.66
2023-04-29T06:53:24.717Z,2.41
2023-04-29T06:55:51.525Z,2.41
2023-04-29T06:58:18.796Z,2.25
2023-04-29T07:00:46.392Z,2.51
2023-04-29T07:03:13.466Z,2.44
2023-04-29T07:05:40.347Z,2.56
2023-04-29T07:08:07.202Z,2.49
2023-04-29T07:10:34.120Z,2.64
2023-04-29T07:13:00.884Z,2.62
2023-04-29T07:15:28.136Z,2.74
2023-04-29T07:17:55.025Z,2.80
2023-04-29T07:20:22.609Z,2.58
2023-04-29T07:22:49.504Z,2.27
2023-04-29T07:25:16.356Z,2.57
2023-04-29T07:27:43.196Z,2.78
2023-04-29T07:30:10.152Z,2.82
2023-04-29T07:32:36.953Z,2.64
2023-04-29T07:35:03.821Z,2.62
2023-04-29T07:37:30.522Z,2.55
2023-04-29T07:39:57.236Z,2.40
2023-04-29T07:42:25.893Z,2.65
2023-04-29T07:44:52.770Z,2.40
2023-04-29T07:47:20.865Z,2.66
2023-04-29T07:49:47.697Z,2.49
2023-04-29T07:52:14.423Z,2.43
2023-04-29T07:54:41.192Z,2.67
2023-04-29T07:57:07.940Z,2.66
2023-04-29T07:59:34.725Z,2.62
2023-04-29T08:02:01.596Z,2.66
2023-04-29T08:04:28.601Z,2.51
2023-04-29T08:06:55.476Z,2.33
2023-04-29T08:09:22.260Z,2.50
2023-04-29T08:11:48.951Z,2.72
2023-04-29T08:14:15.749Z,2.60
2023-04-29T08:16:42.508Z,2.74
2023-04-29T08:19:09.262Z,2.79
2023-04-29T08:21:36.017Z,2.54
2023-04-29T08:24:02.762Z,2.67
2023-04-29T08:26:29.550Z,2.70
2023-04-29T08:28:56.323Z,2.73
2023-04-29T08:31:23.039Z,2.64
2023-04-29T08:33:49.887Z,2.65
2023-04-29T08:36:16.638Z,2.58
2023-04-29T08:38:43.358Z,2.48
2023-04-29T08:41:10.116Z,2.73
2023-04-29T08:43:36.931Z,2.52
2023-04-29T08:46:03.890Z,2.63
2023-04-29T08:48:30.944Z,2.48
2023-04-29T08:50:57.734Z,2.58
2023-04-29T08:53:24.532Z,2.37
2023-04-29T08:55:51.191Z,2.61
2023-04-29T08:58:17.891Z,2.55
2023-04-29T09:00:44.793Z,2.39
2023-04-29T09:03:19.548Z,2.54
2023-04-29T09:05:48.423Z,2.54
2023-04-29T09:08:15.253Z,2.55
2023-04-29T09:10:42.530Z,2.41
2023-04-29T09:13:09.286Z,2.55
2023-04-29T09:15:37.076Z,2.43
2023-04-29T09:18:03.952Z,2.42
2023-04-29T09:20:30.880Z,2.10
2023-04-29T09:23:01.924Z,2.57
2023-04-29T09:25:28.768Z,2.74
2023-04-29T09:27:55.896Z,2.62
2023-04-29T09:30:23.078Z,2.52
2023-04-29T09:33:09.350Z,2.56
2023-04-29T09:35:38.703Z,2.54
2023-04-29T09:38:23.708Z,2.42
2023-04-29T09:40:58.308Z,2.37
2023-04-29T09:43:26.531Z,2.47
2023-04-29T09:45:53.260Z,2.46
2023-04-29T09:48:20.053Z,2.41
2023-04-29T09:50:59.732Z,2.54
2023-04-29T09:53:30.239Z,2.42
2023-04-29T09:56:01.375Z,2.73
2023-04-29T09:58:29.556Z,2.60
2023-04-29T10:00:59.824Z,2.44
2023-04-29T10:03:28.520Z,2.71
2023-04-29T10:05:55.265Z,7.57
2023-04-29T10:08:21.963Z,13.47
2023-04-29T10:10:48.737Z,26.68
2023-04-29T10:13:16.283Z,36.66
2023-04-29T10:15:50.216Z,51.67
2023-04-29T10:18:21.441Z,51.60
2023-04-29T10:20:48.720Z,54.02
2023-04-29T10:23:15.683Z,80.46
2023-04-29T10:25:42.496Z,109.96
2023-04-29T10:28:13.162Z,113.40
2023-04-29T10:30:40.270Z,134.49
2023-04-29T10:33:07.063Z,110.52
2023-04-29T10:35:33.829Z,114.37
2023-04-29T10:38:00.706Z,122.78
2023-04-29T10:40:35.366Z,113.87
2023-04-29T10:43:02.188Z,107.25
2023-04-29T10:45:32.817Z,102.58
2023-04-29T10:48:02.532Z,89.73
2023-04-29T10:50:29.977Z,87.73
2023-04-29T10:52:56.772Z,81.50
2023-04-29T10:55:23.984Z,90.21
2023-04-29T10:57:54.033Z,89.98
2023-04-29T11:00:32.380Z,87.74
2023-04-29T11:03:01.440Z,75.39
2023-04-29T11:05:31.785Z,74.44
2023-04-29T11:08:14.831Z,72.90
2023-04-29T11:10:41.818Z,76.64
2023-04-29T11:13:30.571Z,76.80
2023-04-29T11:16:10.620Z,74.51
2023-04-29T11:18:58.268Z,71.77
2023-04-29T11:21:25.023Z,70.63
2023-04-29T11:23:51.912Z,70.24
2023-04-29T11:26:21.751Z,68.64
2023-04-29T11:28:48.531Z,67.33
2023-04-29T11:31:15.312Z,67.42
2023-04-29T11:33:42.169Z,65.83
2023-04-29T11:36:11.097Z,63.80
2023-04-29T11:38:39.841Z,63.18
2023-04-29T11:41:06.724Z,62.29
2023-04-29T11:43:33.539Z,60.53
2023-04-29T11:46:00.403Z,61.82
2023-04-29T11:48:27.238Z,58.20
2023-04-29T11:50:57.672Z,59.84
2023-04-29T11:53:25.850Z,57.32
2023-04-29T11:55:55.885Z,55.93
2023-04-29T11:58:23.358Z,55.68
2023-04-29T12:00:50.608Z,56.85
2023-04-29T12:03:18.725Z,53.75
2023-04-29T12:05:51.028Z,51.29
2023-04-29T12:08:21.060Z,53.19
2023-04-29T12:10:48.424Z,50.84
2023-04-29T12:13:16.485Z,51.67
2023-04-29T12:15:43.413Z,49.21
2023-04-29T12:18:10.239Z,48.99
2023-04-29T12:20:37.115Z,48.37
2023-04-29T12:23:19.997Z,48.26
2023-04-29T12:25:57.842Z,46.42
2023-04-29T12:28:24.938Z,45.71
2023-04-29T12:30:52.884Z,44.87
2023-04-29T12:33:20.744Z,45.56
2023-04-29T12:35:49.137Z,45.79
2023-04-29T12:38:17.098Z,45.35
2023-04-29T12:40:44.664Z,45.50
2023-04-29T12:43:11.452Z,45.92
2023-04-29T12:45:38.773Z,44.62
2023-04-29T12:48:09.001Z,44.60
2023-04-29T12:50:41.179Z,44.18
2023-04-29T12:53:08.679Z,43.89
2023-04-29T12:55:38.762Z,43.27
2023-04-29T12:58:08.613Z,42.75
2023-04-29T13:00:35.538Z,45.00
2023-04-29T13:03:02.490Z,44.44
2023-04-29T13:05:29.368Z,43.66
2023-04-29T13:07:56.073Z,43.51
2023-04-29T13:10:22.949Z,43.73
2023-04-29T13:12:49.776Z,43.70
2023-04-29T13:15:16.625Z,42.14
2023-04-29T13:17:43.502Z,40.70
2023-04-29T13:20:11.104Z,41.84
2023-04-29T13:22:37.916Z,42.29
2023-04-29T13:25:05.335Z,42.29
2023-04-29T13:27:32.201Z,41.69
2023-04-29T13:29:58.931Z,41.35
2023-04-29T13:32:25.681Z,41.22
2023-04-29T13:34:53.158Z,40.52
2023-04-29T13:37:20.002Z,40.31
2023-04-29T13:39:48.031Z,39.51
2023-04-29T13:42:15.846Z,39.57
2023-04-29T13:47:18.039Z,40.12
2023-04-29T13:55:10.268Z,39.88
2023-04-29T14:00:15.125Z,37.93
2023-04-29T14:05:21.177Z,38.77
2023-04-29T14:07:47.998Z,38.29
2023-04-29T14:10:14.808Z,38.37
2023-04-29T14:12:41.608Z,39.58
2023-04-29T14:15:08.771Z,38.21
2023-04-29T14:17:35.636Z,36.57
2023-04-29T14:20:02.932Z,36.85
2023-04-29T14:22:29.658Z,38.10
2023-04-29T14:24:56.331Z,37.74
2023-04-29T14:27:23.018Z,37.45
2023-04-29T14:29:49.723Z,36.93
2023-04-29T14:32:16.471Z,37.19
2023-04-29T14:34:43.285Z,37.82
2023-04-29T14:37:09.997Z,37.15
2023-04-29T14:39:36.755Z,37.54
2023-04-29T14:42:04.403Z,37.60
2023-04-29T14:44:31.160Z,37.18
2023-04-29T14:46:57.947Z,37.04
2023-04-29T14:49:24.641Z,36.76
2023-04-29T14:51:51.336Z,36.48
2023-04-29T14:54:18.076Z,36.59
2023-04-29T14:56:44.862Z,35.93
2023-04-29T14:59:11.590Z,36.07
2023-04-29T15:01:38.447Z,36.03
2023-04-29T15:04:05.734Z,34.59
2023-04-29T15:06:32.622Z,35.80
2023-04-29T15:08:59.385Z,35.86
2023-04-29T15:11:26.142Z,35.44
2023-04-29T15:13:52.954Z,34.97
2023-04-29T15:16:19.735Z,34.04
2023-04-29T15:18:46.569Z,33.47
2023-04-29T15:21:13.473Z,32.69
2023-04-29T15:23:40.233Z,33.27
2023-04-29T15:26:07.159Z,32.32
2023-04-29T15:28:33.939Z,33.03
2023-04-29T15:31:00.718Z,32.15
2023-04-29T15:33:30.540Z,32.51
2023-04-29T15:35:57.288Z,31.48
2023-04-29T15:38:24.032Z,31.44
2023-04-29T15:40:50.846Z,31.19
2023-04-29T15:43:17.612Z,30.42
2023-04-29T15:45:44.417Z,30.66
2023-04-29T15:48:11.199Z,30.40
2023-04-29T15:50:37.961Z,30.43
2023-04-29T15:53:04.768Z,30.23
2023-04-29T15:55:31.653Z,28.61
2023-04-29T15:57:58.380Z,28.67
2023-04-29T16:00:25.168Z,28.33
2023-04-29T16:02:51.944Z,28.20
2023-04-29T16:05:18.670Z,27.35
2023-04-29T16:07:46.025Z,27.36
2023-04-29T16:10:12.908Z,27.22
2023-04-29T16:12:39.677Z,28.36
2023-04-29T16:15:07.139Z,29.08
2023-04-29T16:17:33.980Z,29.10
2023-04-29T16:20:00.710Z,29.44
2023-04-29T16:22:27.571Z,29.41
2023-04-29T16:24:54.463Z,29.78
2023-04-29T16:27:21.222Z,29.16
2023-04-29T16:29:48.095Z,29.72
2023-04-29T16:32:14.887Z,29.04
2023-04-29T16:34:41.694Z,28.47
2023-04-29T16:37:08.493Z,30.05
2023-04-29T16:39:35.297Z,29.07
2023-04-29T16:42:02.030Z,28.93
2023-04-29T16:44:28.811Z,29.15
2023-04-29T16:46:55.593Z,29.76
2023-04-29T16:49:25.313Z,28.51
2023-04-29T16:51:52.338Z,28.79
2023-04-29T16:54:19.081Z,28.81
2023-04-29T16:56:45.764Z,28.61
2023-04-29T16:59:12.489Z,28.22
2023-04-29T17:01:39.317Z,28.11
2023-04-29T17:04:06.414Z,28.86
2023-04-29T17:06:33.219Z,28.59
2023-04-29T17:09:00.091Z,27.76
2023-04-29T17:11:26.817Z,28.53
2023-04-29T17:13:53.627Z,28.58
2023-04-29T17:16:20.328Z,29.05
2023-04-29T17:18:47.086Z,28.30
2023-04-29T17:21:13.930Z,28.01
2023-04-29T17:23:40.649Z,27.20
2023-04-29T17:26:07.437Z,27.31
2023-04-29T17:28:34.152Z,27.84
2023-04-29T17:31:00.945Z,27.41
2023-04-29T17:33:27.731Z,27.85
2023-04-29T17:35:54.510Z,25.87
2023-04-29T17:38:21.232Z,24.52
2023-04-29T17:40:48.038Z,23.87
2023-04-29T17:43:17.874Z,23.69
2023-04-29T17:45:44.801Z,22.63
2023-04-29T17:48:11.511Z,21.77
2023-04-29T17:50:38.394Z,21.46
2023-04-29T17:53:05.133Z,20.78
2023-04-29T17:55:31.822Z,19.76
2023-04-29T17:57:58.550Z,19.14
2023-04-29T18:00:25.409Z,19.00
2023-04-29T18:02:52.347Z,16.83
2023-04-29T18:05:20.229Z,14.66
2023-04-29T18:07:46.914Z,15.64
2023-04-29T18:10:13.657Z,18.07
2023-04-29T18:12:40.815Z,18.64
2023-04-29T18:15:09.716Z,18.25
2023-04-29T18:17:37.445Z,17.98
2023-04-29T18:20:07.010Z,17.47
2023-04-29T18:22:34.342Z,17.43
2023-04-29T18:25:01.154Z,18.01
2023-04-29T18:27:27.825Z,17.26
2023-04-29T18:29:54.801Z,17.55
2023-04-29T18:32:21.793Z,17.94
2023-04-29T18:34:48.525Z,17.47
2023-04-29T18:37:18.296Z,17.25
2023-04-29T18:39:45.083Z,17.31
2023-04-29T18:42:11.801Z,17.77
2023-04-29T18:44:38.565Z,18.03
2023-04-29T18:47:05.307Z,17.82
2023-04-29T18:49:31.999Z,16.78
2023-04-29T18:51:58.777Z,16.93
2023-04-29T18:54:25.592Z,17.11
2023-04-29T18:56:54.292Z,17.31
2023-04-29T18:59:21.107Z,16.19
2023-04-29T19:01:48.123Z,16.45
2023-04-29T19:04:15.647Z,16.64
2023-04-29T19:06:42.956Z,16.88
2023-04-29T19:09:10.225Z,16.74
2023-04-29T19:11:36.970Z,16.71
2023-04-29T19:14:03.771Z,16.54
2023-04-29T19:16:30.472Z,16.32
2023-04-29T19:18:57.244Z,16.62
2023-04-29T19:21:23.997Z,16.29
2023-04-29T19:23:50.796Z,16.23
2023-04-29T19:26:17.699Z,16.23
2023-04-29T19:28:47.504Z,16.29
2023-04-29T19:31:14.320Z,15.61
2023-04-29T19:33:41.245Z,15.68
2023-04-29T19:36:08.045Z,15.34
2023-04-29T19:38:34.889Z,15.77
2023-04-29T19:41:01.635Z,15.63
2023-04-29T19:43:28.487Z,15.77
2023-04-29T19:45:55.180Z,15.11
2023-04-29T19:48:22.099Z,15.37
2023-04-29T19:50:49.057Z,14.93
2023-04-29T19:53:15.844Z,15.21
2023-04-29T19:55:42.658Z,15.29
2023-04-29T19:58:09.350Z,15.11
2023-04-29T20:00:36.113Z,15.07
2023-04-29T20:03:03.295Z,14.60
2023-04-29T20:05:30.066Z,14.33
2023-04-29T20:07:56.852Z,14.46
2023-04-29T20:10:23.681Z,14.62
2023-04-29T20:12:50.441Z,14.73
2023-04-29T20:15:17.230Z,14.47
2023-04-29T20:17:44.069Z,14.18
2023-04-29T20:20:11.178Z,14.09
2023-04-29T20:22:38.119Z,13.66
2023-04-29T20:25:05.255Z,14.60
2023-04-29T20:27:32.068Z,14.27
2023-04-29T20:29:58.862Z,13.82
2023-04-29T20:32:25.770Z,13.39
2023-04-29T20:34:53.423Z,13.83
2023-04-29T20:37:20.222Z,14.28
2023-04-29T20:39:47.372Z,13.36
2023-04-29T20:42:14.295Z,14.05
2023-04-29T20:44:41.095Z,13.69
2023-04-29T20:47:07.848Z,13.42
2023-04-29T20:49:34.619Z,12.70
2023-04-29T20:52:01.330Z,12.88
2023-04-29T20:54:28.100Z,12.99
2023-04-29T20:56:54.834Z,12.95
2023-04-29T20:59:21.639Z,13.23
2023-04-29T21:01:48.437Z,12.82
2023-04-29T21:04:15.359Z,12.49
2023-04-29T21:06:42.273Z,12.98
2023-04-29T21:09:09.211Z,12.87
2023-04-29T21:11:36.104Z,12.73
2023-04-29T21:14:02.996Z,12.46
2023-04-29T21:16:29.758Z,12.40
2023-04-29T21:18:56.649Z,12.76
2023-04-29T21:21:23.496Z,12.67
2023-04-29T21:23:50.248Z,12.68
2023-04-29T21:26:16.980Z,12.28
2023-04-29T21:28:43.777Z,12.23
2023-04-29T21:31:10.602Z,12.41
2023-04-29T21:33:37.459Z,11.96
2023-04-29T21:36:04.224Z,12.30
2023-04-29T21:38:30.971Z,11.67
2023-04-29T21:40:58.353Z,11.82
2023-04-29T21:43:25.157Z,11.88
2023-04-29T21:45:52.875Z,11.92
2023-04-29T21:48:19.742Z,11.74
2023-04-29T21:50:46.566Z,11.40
2023-04-29T21:53:15.851Z,11.17
2023-04-29T21:55:43.323Z,11.39
2023-04-29T21:58:10.131Z,11.65
2023-04-29T22:00:37.378Z,11.11
2023-04-29T22:03:04.257Z,10.97
2023-04-29T22:05:31.057Z,11.32
2023-04-29T22:07:59.160Z,11.09
2023-04-29T22:10:25.970Z,11.22
2023-04-29T22:12:52.819Z,11.05
2023-04-29T22:15:27.963Z,11.10
2023-04-29T22:17:55.887Z,11.11
2023-04-29T22:20:22.786Z,11.57
2023-04-29T22:22:49.646Z,10.29
2023-04-29T22:25:16.531Z,10.69
2023-04-29T22:27:43.306Z,10.67
2023-04-29T22:30:10.464Z,10.81
2023-04-29T22:32:37.524Z,11.01
2023-04-29T22:35:04.559Z,11.08
2023-04-29T22:37:31.490Z,10.69
2023-04-29T22:39:58.385Z,10.84
2023-04-29T22:42:25.209Z,10.69
2023-04-29T22:44:51.996Z,10.53
2023-04-29T22:47:18.777Z,11.07
2023-04-29T22:49:45.522Z,10.65
2023-04-29T22:52:12.425Z,10.38
2023-04-29T22:54:39.258Z,10.68
2023-04-29T22:57:05.996Z,10.49
2023-04-29T22:59:32.681Z,10.29
2023-04-29T23:01:59.416Z,10.23
2023-04-29T23:04:26.244Z,10.12
2023-04-29T23:06:53.020Z,10.10
2023-04-29T23:09:19.746Z,10.19
2023-04-29T23:11:46.535Z,10.54
2023-04-29T23:14:13.247Z,10.34
2023-04-29T23:16:40.028Z,10.18
2023-04-29T23:19:06.846Z,10.45
2023-04-29T23:21:33.696Z,10.16
2023-04-29T23:24:00.483Z,9.76
2023-04-29T23:26:27.291Z,9.84
2023-04-29T23:28:54.086Z,9.79
2023-04-29T23:31:20.893Z,9.91
2023-04-29T23:33:47.658Z,9.69
2023-04-29T23:36:14.455Z,9.90
2023-04-29T23:38:41.190Z,9.90
2023-04-29T23:41:07.921Z,9.97
2023-04-29T23:43:34.717Z,9.75
2023-04-29T23:46:01.612Z,9.40
2023-04-29T23:48:28.458Z,9.74
2023-04-29T23:50:55.192Z,9.43
2023-04-29T23:53:22.000Z,9.23
2023-04-29T23:55:48.865Z,9.14
2023-04-29T23:58:15.570Z,9.27
